| time (UTC) | temp F | wind direction | speed MPH | gust MPH | rain 1hr in | rain 24hr in | rain mn in | humidity % | barometer mb |
| 20260904044209 | 80 | 111 | 5.0 | 7.0 | 0.00 | 0.00 | 0.00 | 82 | 1012.1 |
| 20260904043705 | 81 | 158 | 4.0 | 6.0 | 0.00 | 0.00 | 0.00 | 81 | 1011.9 |
| 20260904043201 | 81 | 108 | 5.0 | 6.0 | 0.00 | 0.00 | 0.00 | 81 | 1012.1 |
| 20260904042657 | 81 | 160 | 4.0 | 6.0 | 0.00 | 0.00 | 0.00 | 81 | 1011.9 |
| 20260904042153 | 81 | 134 | 4.0 | 6.0 | 0.00 | 0.00 | 0.00 | 80 | 1012.0 |
| 20260904041647 | 81 | 176 | 4.0 | 6.0 | 0.00 | 0.00 | 0.00 | 79 | 1012.1 |
| 20260904041143 | 82 | 258 | 4.0 | 6.0 | 0.00 | 0.00 | 0.00 | 78 | 1011.9 |
| 20260904040639 | 82 | 113 | 4.0 | 5.0 | 0.00 | 0.00 | 0.00 | 77 | 1012.1 |
| 20260904040135 | 82 | 127 | 5.0 | 6.0 | 0.00 | 0.00 | 0.00 | 76 | 1012.0 |
| 20260904035631 | 82 | 188 | 5.0 | 7.0 | 0.00 | 0.00 | 0.00 | 75 | 1011.9 |
| 20260904035130 | 82 | 176 | 7.0 | 11.0 | 0.00 | 0.00 | 0.00 | 75 | 1011.8 |
| 20260904034630 | 83 | 146 | 5.0 | 7.0 | 0.00 | 0.00 | 0.00 | 73 | 1011.7 |
| 20260904034125 | 83 | 156 | 6.0 | 7.0 | 0.00 | 0.00 | 0.00 | 72 | 1011.6 |
| 20260904033621 | 83 | 140 | 3.0 | 5.0 | 0.00 | 0.00 | 0.00 | 70 | 1011.8 |
| 20260904033119 | 83 | 117 | 6.0 | 9.0 | 0.00 | 0.00 | 0.00 | 69 | 1011.6 |
| 20260904032614 | 83 | 150 | 5.0 | 6.0 | 0.00 | 0.00 | 0.00 | 69 | 1011.7 |
| 20260904032113 | 84 | 182 | 4.0 | 5.0 | 0.00 | 0.00 | 0.00 | 68 | 1011.7 |
| 20260904031612 | 84 | 150 | 4.0 | 5.0 | 0.00 | 0.00 | 0.00 | 68 | 1011.6 |
| 20260904031108 | 84 | 140 | 5.0 | 7.0 | 0.00 | 0.00 | 0.00 | 69 | 1011.7 |
| 20260904030604 | 84 | 146 | 4.0 | 5.0 | 0.00 | 0.00 | 0.00 | 69 | 1011.6 |
| 20260904030059 | 84 | 169 | 4.0 | 6.0 | 0.00 | 0.00 | 0.00 | 69 | 1011.5 |
| 20260904025554 | 84 | 156 | 4.0 | 5.0 | 0.00 | 0.00 | 0.00 | 69 | 1011.3 |
| 20260904025049 | 84 | 158 | 5.0 | 8.0 | 0.00 | 0.00 | 0.00 | 68 | 1011.2 |
| 20260904024545 | 84 | 157 | 4.0 | 5.0 | 0.00 | 0.00 | 0.00 | 69 | 1011.3 |
| 20260904024041 | 84 | 155 | 6.0 | 7.0 | 0.00 | 0.00 | 0.00 | 69 | 1011.1 |
| 20260904023537 | 84 | 175 | 4.0 | 5.0 | 0.00 | 0.00 | 0.00 | 71 | 1011.1 |
| 20260904023032 | 84 | 121 | 3.0 | 3.0 | 0.00 | 0.00 | 0.00 | 73 | 1011.0 |
| 20260904022526 | 84 | 130 | 3.0 | 3.0 | 0.00 | 0.00 | 0.00 | 73 | 1011.1 |
| 20260904022024 | 84 | 142 | 1.0 | 2.0 | 0.00 | 0.00 | 0.00 | 73 | 1010.7 |
| 20260904021519 | 84 | 133 | 3.0 | 3.0 | 0.00 | 0.00 | 0.00 | 73 | 1010.8 |
| 20260904021015 | 84 | 88 | 2.0 | 2.0 | 0.00 | 0.00 | 0.00 | 72 | 1010.6 |
| 20260904020515 | 84 | 152 | 3.0 | 3.0 | 0.00 | 0.00 | 0.00 | 71 | 1010.8 |
| 20260904020009 | 84 | 130 | 3.0 | 3.0 | 0.00 | 0.00 | 0.00 | 71 | 1010.7 |
| 20260904015504 | 85 | 109 | 2.0 | 3.0 | 0.00 | 0.00 | 0.00 | 70 | 1010.9 |
| 20260904015002 | 85 | 157 | 2.0 | 5.0 | 0.00 | 0.00 | 0.00 | 70 | 1010.5 |
| 20260904014457 | 85 | 134 | 3.0 | 3.0 | 0.00 | 0.00 | 0.00 | 69 | 1010.4 |
| 20260904013953 | 85 | 96 | 2.0 | 2.0 | 0.00 | 0.00 | 0.00 | 69 | 1010.6 |
| 20260904013449 | 85 | 150 | 2.0 | 3.0 | 0.00 | 0.00 | 0.00 | 69 | 1010.6 |
| 20260904012945 | 85 | 132 | 2.0 | 3.0 | 0.00 | 0.00 | 0.00 | 69 | 1010.5 |
| 20260904012444 | 85 | 141 | 3.0 | 5.0 | 0.00 | 0.00 | 0.00 | 70 | 1010.4 |
| 20260904011938 | 85 | 134 | 4.0 | 6.0 | 0.00 | 0.00 | 0.00 | 70 | 1010.2 |
| 20260904011433 | 85 | 182 | 4.0 | 6.0 | 0.00 | 0.00 | 0.00 | 70 | 1010.2 |
| 20260904010928 | 85 | 132 | 2.0 | 3.0 | 0.00 | 0.00 | 0.00 | 70 | 1010.2 |
| 20260904010420 | 85 | 134 | 3.0 | 3.0 | 0.00 | 0.00 | 0.00 | 70 | 1010.3 |
| 20260904005920 | 85 | 129 | 5.0 | 7.0 | 0.00 | 0.00 | 0.00 | 70 | 1010.1 |
| 20260904005415 | 86 | 43 | 3.0 | 5.0 | 0.00 | 0.00 | 0.00 | 70 | 1010.1 |
| 20260904004910 | 86 | 147 | 7.0 | 8.0 | 0.00 | 0.00 | 0.00 | 69 | 1009.8 |
| 20260904004406 | 86 | 145 | 3.0 | 3.0 | 0.00 | 0.00 | 0.00 | 69 | 1010.0 |
| 20260904003901 | 86 | 140 | 4.0 | 6.0 | 0.00 | 0.00 | 0.00 | 68 | 1010.1 |
| 20260904003356 | 86 | 255 | 3.0 | 5.0 | 0.00 | 0.00 | 0.00 | 68 | 1010.1 |
| 20260904002851 | 87 | 120 | 3.0 | 3.0 | 0.00 | 0.00 | 0.00 | 67 | 1009.6 |
| 20260904002348 | 87 | 127 | 6.0 | 9.0 | 0.00 | 0.00 | 0.00 | 66 | 1009.6 |
| 20260904001847 | 87 | 92 | 9.0 | 14.0 | 0.00 | 0.00 | 0.00 | 64 | 1009.7 |
| 20260904001343 | 89 | 147 | 9.0 | 10.0 | 0.00 | 0.00 | 0.00 | 62 | 1009.8 |
| 20260904000837 | 89 | 98 | 3.0 | 5.0 | 0.00 | 0.00 | 0.00 | 60 | 1009.7 |
| 20260904000336 | 89 | 155 | 4.0 | 5.0 | 0.00 | 0.00 | 0.00 | 60 | 1009.8 |
| 20260903235831 | 90 | 162 | 5.0 | 7.0 | 0.00 | 0.00 | 0.00 | 59 | 1009.7 |
| 20260903235328 | 90 | 147 | 7.0 | 9.0 | 0.00 | 0.00 | 0.00 | 59 | 1009.8 |
| 20260903234826 | 91 | 163 | 6.0 | 7.0 | 0.00 | 0.00 | 0.00 | 58 | 1009.8 |
| 20260903234323 | 93 | 126 | 5.0 | 6.0 | 0.00 | 0.00 | 0.00 | 54 | 1009.4 |
| 20260903233819 | 94 | 144 | 6.0 | 7.0 | 0.00 | 0.00 | 0.00 | 51 | 1009.3 |
| 20260903233315 | 94 | 333 | 7.0 | 10.0 | 0.00 | 0.00 | 0.00 | 50 | 1009.3 |
| 20260903232814 | 94 | 99 | 3.0 | 3.0 | 0.00 | 0.00 | 0.00 | 49 | 1009.4 |
| 20260903232310 | 94 | 119 | 2.0 | 2.0 | 0.00 | 0.00 | 0.00 | 48 | 1009.2 |
| 20260903231809 | 94 | 130 | 5.0 | 6.0 | 0.00 | 0.00 | 0.00 | 48 | 1009.3 |
| 20260903231304 | 94 | 154 | 3.0 | 5.0 | 0.00 | 0.00 | 0.00 | 47 | 1009.3 |
| 20260903230759 | 95 | 98 | 3.0 | 5.0 | 0.00 | 0.00 | 0.00 | 46 | 1009.1 |
| 20260903230254 | 95 | 125 | 7.0 | 8.0 | 0.00 | 0.00 | 0.00 | 46 | 1009.1 |
| 20260903225750 | 94 | 136 | 3.0 | 6.0 | 0.00 | 0.00 | 0.00 | 48 | 1009.2 |
| 20260903225246 | 95 | 162 | 5.0 | 7.0 | 0.00 | 0.00 | 0.00 | 48 | 1009.1 |
| 20260903224743 | 95 | 71 | 2.0 | 5.0 | 0.00 | 0.00 | 0.00 | 49 | 1009.1 |
| 20260903224239 | 94 | 78 | 4.0 | 8.0 | 0.00 | 0.00 | 0.00 | 50 | 1009.1 |
| 20260903223733 | 95 | 124 | 3.0 | 3.0 | 0.00 | 0.00 | 0.00 | 52 | 1009.1 |
| 20260903223232 | 95 | 139 | 5.0 | 7.0 | 0.00 | 0.00 | 0.00 | 51 | 1009.0 |
| 20260903222727 | 94 | 146 | 5.0 | 6.0 | 0.00 | 0.00 | 0.00 | 52 | 1009.0 |
| 20260903222226 | 94 | 145 | 3.0 | 7.0 | 0.00 | 0.00 | 0.00 | 52 | 1009.1 |
| 20260903221721 | 93 | 168 | 4.0 | 6.0 | 0.00 | 0.00 | 0.00 | 54 | 1009.4 |
| 20260903221220 | 93 | 186 | 4.0 | 5.0 | 0.00 | 0.00 | 0.00 | 53 | 1009.1 |
| 20260903220718 | 93 | 156 | 4.0 | 5.0 | 0.00 | 0.00 | 0.00 | 53 | 1009.2 |
| 20260903220213 | 94 | 64 | 5.0 | 6.0 | 0.00 | 0.00 | 0.00 | 52 | 1009.3 |
| 20260903215712 | 96 | 314 | 7.0 | 13.0 | 0.00 | 0.00 | 0.00 | 50 | 1009.5 |
| 20260903215208 | 97 | 151 | 4.0 | 7.0 | 0.00 | 0.00 | 0.00 | 45 | 1009.1 |
| 20260903214706 | 100 | 150 | 5.0 | 7.0 | 0.00 | 0.00 | 0.00 | 42 | 1009.1 |
| 20260903214202 | 101 | 151 | 5.0 | 6.0 | 0.00 | 0.00 | 0.00 | 42 | 1009.0 |
| 20260903213656 | 101 | 230 | 3.0 | 3.0 | 0.00 | 0.00 | 0.00 | 42 | 1008.9 |
| 20260903213152 | 101 | 126 | 3.0 | 3.0 | 0.00 | 0.00 | 0.00 | 43 | 1009.3 |
| 20260903212647 | 100 | 120 | 1.0 | 1.0 | 0.00 | 0.00 | 0.00 | 43 | 1009.2 |
| 20260903212143 | 101 | 126 | 3.0 | 5.0 | 0.00 | 0.00 | 0.00 | 42 | 1009.1 |
| 20260903211638 | 98 | 73 | 1.0 | 1.0 | 0.00 | 0.00 | 0.00 | 44 | 1009.4 |
| 20260903211135 | 97 | 81 | 1.0 | 1.0 | 0.00 | 0.00 | 0.00 | 46 | 1009.7 |
| 20260903210630 | 96 | 140 | 2.0 | 2.0 | 0.00 | 0.00 | 0.00 | 48 | 1009.3 |
| 20260903210126 | 97 | 116 | 3.0 | 5.0 | 0.00 | 0.00 | 0.00 | 47 | 1009.6 |
| 20260903205624 | 99 | 58 | 5.0 | 7.0 | 0.00 | 0.00 | 0.00 | 47 | 1009.6 |
| 20260903205119 | 102 | 173 | 2.0 | 5.0 | 0.00 | 0.00 | 0.00 | 44 | 1009.6 |
| 20260903204615 | 101 | 158 | 4.0 | 5.0 | 0.00 | 0.00 | 0.00 | 43 | 1009.6 |
| 20260903204110 | 101 | 286 | 2.0 | 3.0 | 0.00 | 0.00 | 0.00 | 43 | 1009.7 |
| 20260903203606 | 100 | 135 | 4.0 | 6.0 | 0.00 | 0.00 | 0.00 | 44 | 1010.1 |
| 20260903203106 | 101 | 153 | 2.0 | 3.0 | 0.00 | 0.00 | 0.00 | 42 | 1009.7 |
| 20260903202555 | 100 | 169 | 4.0 | 5.0 | 0.00 | 0.00 | 0.00 | 44 | 1010.0 |
| 20260903202051 | 101 | 97 | 1.0 | 2.0 | 0.00 | 0.00 | 0.00 | 43 | 1010.2 |
| 20260903201545 | 100 | 146 | 5.0 | 6.0 | 0.00 | 0.00 | 0.00 | 44 | 1010.2 |
| 20260903201044 | 99 | 166 | 5.0 | 6.0 | 0.00 | 0.00 | 0.00 | 44 | 1010.3 |
| 20260903200539 | 100 | 239 | 5.0 | 6.0 | 0.00 | 0.00 | 0.00 | 44 | 1010.5 |
| 20260903200035 | 99 | 345 | 2.0 | 2.0 | 0.00 | 0.00 | 0.00 | 46 | 1010.4 |
| 20260903195531 | 100 | 146 | 2.0 | 3.0 | 0.00 | 0.00 | 0.00 | 44 | 1010.3 |
| 20260903195026 | 99 | 135 | 2.0 | 3.0 | 0.00 | 0.00 | 0.00 | 46 | 1010.5 |
| 20260903194522 | 98 | 108 | 2.0 | 2.0 | 0.00 | 0.00 | 0.00 | 46 | 1010.4 |
| 20260903194016 | 98 | 146 | 5.0 | 5.0 | 0.00 | 0.00 | 0.00 | 46 | 1010.4 |
| 20260903193513 | 98 | 160 | 4.0 | 5.0 | 0.00 | 0.00 | 0.00 | 48 | 1010.6 |
| 20260903193008 | 98 | 148 | 3.0 | 3.0 | 0.00 | 0.00 | 0.00 | 48 | 1010.7 |
| 20260903192504 | 98 | 152 | 5.0 | 7.0 | 0.00 | 0.00 | 0.00 | 47 | 1010.6 |
| 20260903191959 | 98 | 153 | 4.0 | 5.0 | 0.00 | 0.00 | 0.00 | 46 | 1010.8 |
| 20260903191455 | 98 | 10 | 3.0 | 6.0 | 0.00 | 0.00 | 0.00 | 46 | 1011.0 |
| 20260903190954 | 98 | 248 | 4.0 | 5.0 | 0.00 | 0.00 | 0.00 | 48 | 1011.1 |
| 20260903190448 | 98 | 140 | 3.0 | 3.0 | 0.00 | 0.00 | 0.00 | 48 | 1011.2 |
| 20260903185943 | 97 | 191 | 2.0 | 3.0 | 0.00 | 0.00 | 0.00 | 48 | 1010.9 |
| 20260903185439 | 96 | 161 | 3.0 | 3.0 | 0.00 | 0.00 | 0.00 | 50 | 1011.3 |
| 20260903184938 | 95 | 154 | 3.0 | 3.0 | 0.00 | 0.00 | 0.00 | 53 | 1011.3 |
| 20260903184436 | 96 | 176 | 3.0 | 3.0 | 0.00 | 0.00 | 0.00 | 52 | 1011.5 |
| 20260903183930 | 95 | 154 | 3.0 | 3.0 | 0.00 | 0.00 | 0.00 | 52 | 1011.3 |
| 20260903183425 | 95 | 155 | 3.0 | 3.0 | 0.00 | 0.00 | 0.00 | 53 | 1011.7 |
| 20260903182924 | 94 | 128 | 4.0 | 6.0 | 0.00 | 0.00 | 0.00 | 55 | 1011.7 |
| 20260903182423 | 94 | 116 | 2.0 | 2.0 | 0.00 | 0.00 | 0.00 | 55 | 1012.0 |
| 20260903181919 | 95 | 92 | 3.0 | 3.0 | 0.00 | 0.00 | 0.00 | 56 | 1011.9 |
| 20260903181413 | 96 | 164 | 2.0 | 2.0 | 0.00 | 0.00 | 0.00 | 54 | 1011.8 |
| 20260903180912 | 96 | 189 | 4.0 | 7.0 | 0.00 | 0.00 | 0.00 | 53 | 1012.0 |
| 20260903180407 | 94 | 129 | 1.0 | 2.0 | 0.00 | 0.00 | 0.00 | 55 | 1012.1 |
| 20260903175906 | 95 | 149 | 3.0 | 3.0 | 0.00 | 0.00 | 0.00 | 54 | 1012.3 |
| 20260903175400 | 94 | 149 | 2.0 | 3.0 | 0.00 | 0.00 | 0.00 | 55 | 1012.1 |
| 20260903174855 | 94 | 168 | 3.0 | 5.0 | 0.00 | 0.00 | 0.00 | 56 | 1012.3 |
| 20260903174350 | 93 | 107 | 5.0 | 6.0 | 0.00 | 0.00 | 0.00 | 57 | 1012.2 |
| 20260903173845 | 92 | 145 | 4.0 | 6.0 | 0.00 | 0.00 | 0.00 | 59 | 1012.3 |
| 20260903173340 | 93 | 180 | 4.0 | 6.0 | 0.00 | 0.00 | 0.00 | 60 | 1012.2 |
| 20260903172836 | 92 | 240 | 3.0 | 3.0 | 0.00 | 0.00 | 0.00 | 60 | 1012.2 |
| 20260903172330 | 92 | 106 | 4.0 | 6.0 | 0.00 | 0.00 | 0.00 | 62 | 1012.4 |
| 20260903171826 | 91 | 200 | 5.0 | 6.0 | 0.00 | 0.00 | 0.00 | 62 | 1012.6 |
| 20260903171321 | 90 | 143 | 3.0 | 3.0 | 0.00 | 0.00 | 0.00 | 65 | 1012.6 |
| 20260903170820 | 90 | 167 | 3.0 | 3.0 | 0.00 | 0.00 | 0.00 | 65 | 1012.8 |
| 20260903170316 | 92 | 90 | 1.0 | 2.0 | 0.00 | 0.00 | 0.00 | 63 | 1012.9 |
| 20260903165814 | 91 | 129 | 4.0 | 5.0 | 0.00 | 0.00 | 0.00 | 64 | 1012.8 |
| 20260903165309 | 89 | 333 | 3.0 | 5.0 | 0.00 | 0.00 | 0.00 | 67 | 1012.8 |
| 20260903164809 | 88 | 133 | 3.0 | 3.0 | 0.00 | 0.00 | 0.00 | 68 | 1013.1 |
| 20260903164304 | 88 | 212 | 5.0 | 7.0 | 0.00 | 0.00 | 0.00 | 67 | 1013.0 |
| 20260903163803 | 88 | 341 | 3.0 | 3.0 | 0.00 | 0.00 | 0.00 | 67 | 1012.9 |
| 20260903163300 | 87 | 181 | 3.0 | 3.0 | 0.00 | 0.00 | 0.00 | 68 | 1013.2 |
| 20260903162756 | 87 | 144 | 4.0 | 5.0 | 0.00 | 0.00 | 0.00 | 68 | 1013.1 |
| 20260903162252 | 87 | 140 | 3.0 | 5.0 | 0.00 | 0.00 | 0.00 | 69 | 1012.9 |
| 20260903161747 | 87 | 173 | 3.0 | 5.0 | 0.00 | 0.00 | 0.00 | 70 | 1013.1 |
| 20260903161243 | 86 | 174 | 3.0 | 3.0 | 0.00 | 0.00 | 0.00 | 71 | 1013.3 |
| 20260903160738 | 86 | 154 | 3.0 | 5.0 | 0.00 | 0.00 | 0.00 | 72 | 1013.3 |
| 20260903160237 | 87 | 358 | 2.0 | 2.0 | 0.00 | 0.00 | 0.00 | 71 | 1013.1 |
| 20260903155736 | 87 | 174 | 3.0 | 3.0 | 0.00 | 0.00 | 0.00 | 72 | 1013.0 |
| 20260903155231 | 87 | 44 | 2.0 | 3.0 | 0.00 | 0.00 | 0.00 | 72 | 1012.9 |
| 20260903154726 | 87 | 172 | 3.0 | 3.0 | 0.00 | 0.00 | 0.00 | 72 | 1012.9 |
| 20260903154222 | 87 | 347 | 1.0 | 2.0 | 0.00 | 0.00 | 0.00 | 73 | 1012.9 |
| 20260903153718 | 87 | 191 | 3.0 | 3.0 | 0.00 | 0.00 | 0.00 | 73 | 1013.2 |
| 20260903153214 | 87 | 26 | 2.0 | 2.0 | 0.00 | 0.00 | 0.00 | 73 | 1013.0 |
| 20260903152710 | 86 | 70 | 2.0 | 3.0 | 0.00 | 0.00 | 0.00 | 74 | 1013.0 |
| 20260903152206 | 85 | 101 | 2.0 | 2.0 | 0.00 | 0.00 | 0.00 | 77 | 1012.9 |
| 20260903151705 | 85 | 183 | 4.0 | 8.0 | 0.00 | 0.00 | 0.00 | 76 | 1012.8 |
| 20260903151200 | 85 | 226 | 3.0 | 5.0 | 0.00 | 0.00 | 0.00 | 75 | 1012.9 |
| 20260903150655 | 85 | 204 | 4.0 | 6.0 | 0.00 | 0.00 | 0.00 | 77 | 1012.8 |
| 20260903150150 | 85 | 154 | 3.0 | 5.0 | 0.00 | 0.00 | 0.00 | 78 | 1013.0 |
| 20260903145650 | 84 | 188 | 5.0 | 6.0 | 0.00 | 0.00 | 0.00 | 78 | 1012.8 |
| 20260903145145 | 84 | 158 | 3.0 | 5.0 | 0.00 | 0.00 | 0.00 | 80 | 1012.8 |
| 20260903144643 | 82 | 235 | 3.0 | 6.0 | 0.00 | 0.00 | 0.00 | 81 | 1012.9 |
| 20260903144140 | 83 | 215 | 5.0 | 7.0 | 0.00 | 0.00 | 0.00 | 81 | 1013.1 |
| 20260903143636 | 83 | 226 | 4.0 | 7.0 | 0.00 | 0.00 | 0.00 | 81 | 1013.0 |
| 20260903143131 | 82 | 136 | 3.0 | 3.0 | 0.00 | 0.00 | 0.00 | 83 | 1013.0 |
| 20260903142627 | 82 | 159 | 3.0 | 3.0 | 0.00 | 0.00 | 0.00 | 83 | 1013.1 |
| 20260903142123 | 82 | 183 | 3.0 | 5.0 | 0.00 | 0.00 | 0.00 | 82 | 1013.1 |
| 20260903141618 | 82 | 111 | 4.0 | 5.0 | 0.00 | 0.00 | 0.00 | 84 | 1012.9 |
| 20260903141108 | 82 | 202 | 4.0 | 6.0 | 0.00 | 0.00 | 0.00 | 84 | 1012.8 |
| 20260903140604 | 81 | 153 | 1.0 | 2.0 | 0.00 | 0.00 | 0.00 | 86 | 1013.2 |
| 20260903140059 | 81 | 102 | 2.0 | 2.0 | 0.00 | 0.00 | 0.00 | 87 | 1013.2 |
| 20260903135554 | 80 | 237 | 5.0 | 9.0 | 0.00 | 0.00 | 0.00 | 87 | 1013.2 |
| 20260903135049 | 81 | 268 | 3.0 | 6.0 | 0.00 | 0.00 | 0.00 | 87 | 1013.2 |
| 20260903134548 | 81 | 200 | 4.0 | 6.0 | 0.00 | 0.00 | 0.00 | 87 | 1013.2 |
| 20260903134044 | 80 | 11 | 4.0 | 5.0 | 0.00 | 0.00 | 0.00 | 88 | 1013.3 |
| 20260903133541 | 80 | 66 | 1.0 | 2.0 | 0.00 | 0.00 | 0.00 | 89 | 1013.0 |
| 20260903133037 | 79 | 93 | 3.0 | 3.0 | 0.00 | 0.00 | 0.00 | 89 | 1013.3 |
| 20260903132532 | 79 | 194 | 1.0 | 2.0 | 0.00 | 0.00 | 0.00 | 90 | 1013.3 |
| 20260903132027 | 79 | 162 | 2.0 | 2.0 | 0.00 | 0.00 | 0.00 | 90 | 1013.4 |
| 20260903131522 | 79 | 132 | 2.0 | 3.0 | 0.00 | 0.00 | 0.00 | 91 | 1013.2 |
| 20260903131020 | 79 | 166 | 3.0 | 3.0 | 0.00 | 0.00 | 0.00 | 91 | 1013.3 |
| 20260903130515 | 78 | 64 | 1.0 | 2.0 | 0.00 | 0.00 | 0.00 | 91 | 1013.1 |
| 20260903130015 | 78 | 205 | 3.0 | 5.0 | 0.00 | 0.00 | 0.00 | 91 | 1013.2 |
| 20260903125514 | 78 | 98 | 3.0 | 3.0 | 0.00 | 0.00 | 0.00 | 92 | 1013.1 |
| 20260903125009 | 78 | 58 | 1.0 | 1.0 | 0.00 | 0.00 | 0.00 | 92 | 1012.6 |
| 20260903124504 | 78 | 145 | 3.0 | 3.0 | 0.00 | 0.00 | 0.00 | 92 | 1013.1 |
| 20260903124003 | 78 | 188 | 2.0 | 2.0 | 0.00 | 0.00 | 0.00 | 92 | 1012.9 |
| 20260903123503 | 78 | 113 | 1.0 | 1.0 | 0.00 | 0.00 | 0.00 | 92 | 1013.1 |
| 20260903123001 | 78 | 151 | 3.0 | 3.0 | 0.00 | 0.00 | 0.00 | 92 | 1012.8 |
| 20260903122456 | 78 | 96 | 2.0 | 2.0 | 0.00 | 0.00 | 0.00 | 92 | 1012.9 |
| 20260903121955 | 78 | 105 | 2.0 | 3.0 | 0.00 | 0.00 | 0.00 | 92 | 1012.6 |
| 20260903121450 | 78 | 113 | 2.0 | 2.0 | 0.00 | 0.00 | 0.00 | 92 | 1012.5 |
| 20260903120947 | 78 | 31 | 2.0 | 3.0 | 0.00 | 0.00 | 0.00 | 91 | 1012.8 |
| 20260903120445 | 78 | 92 | 1.0 | 1.0 | 0.00 | 0.00 | 0.00 | 91 | 1012.8 |
| 20260903115944 | 78 | 123 | 1.0 | 2.0 | 0.00 | 0.00 | 0.00 | 91 | 1013.0 |
| 20260903115444 | 78 | 200 | 3.0 | 5.0 | 0.00 | 0.00 | 0.00 | 91 | 1012.8 |
| 20260903114939 | 78 | 100 | 2.0 | 2.0 | 0.00 | 0.00 | 0.00 | 92 | 1012.6 |
| 20260903114434 | 78 | 229 | 2.0 | 3.0 | 0.00 | 0.00 | 0.00 | 92 | 1012.8 |
| 20260903113929 | 78 | 139 | 5.0 | 7.0 | 0.00 | 0.00 | 0.00 | 92 | 1012.6 |
| 20260903113426 | 78 | 329 | 3.0 | 6.0 | 0.00 | 0.00 | 0.00 | 92 | 1012.5 |
| 20260903112921 | 78 | 170 | 2.0 | 2.0 | 0.00 | 0.00 | 0.00 | 92 | 1012.8 |
| 20260903112416 | 78 | 129 | 1.0 | 2.0 | 0.00 | 0.00 | 0.00 | 92 | 1012.5 |
| 20260903111915 | 78 | 201 | 1.0 | 2.0 | 0.00 | 0.00 | 0.00 | 92 | 1012.2 |
| 20260903111415 | 78 | 85 | 1.0 | 2.0 | 0.00 | 0.00 | 0.00 | 92 | 1012.3 |
| 20260903110912 | 78 | 146 | 1.0 | 1.0 | 0.00 | 0.00 | 0.00 | 92 | 1012.3 |
| 20260903110407 | 78 | 200 | 3.0 | 5.0 | 0.00 | 0.00 | 0.00 | 92 | 1012.2 |
| 20260903105902 | 78 | 177 | 2.0 | 3.0 | 0.00 | 0.00 | 0.00 | 93 | 1012.1 |
| 20260903105357 | 78 | 49 | 5.0 | 6.0 | 0.00 | 0.00 | 0.00 | 93 | 1012.3 |
| 20260903104856 | 78 | 244 | 4.0 | 5.0 | 0.00 | 0.00 | 0.00 | 93 | 1012.1 |
| 20260903104350 | 78 | 175 | 3.0 | 7.0 | 0.00 | 0.00 | 0.00 | 94 | 1012.0 |
| 20260903103848 | 78 | 134 | 3.0 | 6.0 | 0.00 | 0.00 | 0.00 | 94 | 1011.8 |
| 20260903103344 | 78 | 158 | 3.0 | 5.0 | 0.00 | 0.00 | 0.00 | 94 | 1012.1 |
| 20260903102839 | 78 | 94 | 3.0 | 5.0 | 0.00 | 0.00 | 0.00 | 93 | 1012.2 |
| 20260903102338 | 78 | 170 | 3.0 | 5.0 | 0.00 | 0.00 | 0.00 | 93 | 1012.1 |
| 20260903101833 | 78 | 123 | 2.0 | 2.0 | 0.00 | 0.00 | 0.00 | 93 | 1012.3 |
| 20260903101328 | 78 | 188 | 2.0 | 3.0 | 0.00 | 0.00 | 0.00 | 93 | 1012.1 |
| 20260903100824 | 78 | 100 | 2.0 | 2.0 | 0.00 | 0.00 | 0.00 | 93 | 1012.2 |
| 20260903100323 | 78 | 134 | 3.0 | 3.0 | 0.00 | 0.00 | 0.00 | 93 | 1012.3 |
| 20260903095821 | 78 | 142 | 2.0 | 2.0 | 0.00 | 0.00 | 0.00 | 93 | 1012.2 |
| 20260903095315 | 78 | 144 | 3.0 | 5.0 | 0.00 | 0.00 | 0.00 | 93 | 1012.3 |
| 20260903094810 | 78 | 146 | 4.0 | 6.0 | 0.00 | 0.00 | 0.00 | 93 | 1012.3 |
| 20260903094305 | 78 | 213 | 3.0 | 3.0 | 0.00 | 0.00 | 0.00 | 93 | 1012.3 |
| 20260903093801 | 78 | 97 | 2.0 | 2.0 | 0.00 | 0.00 | 0.00 | 93 | 1012.2 |
| 20260903093256 | 78 | 227 | 3.0 | 5.0 | 0.00 | 0.00 | 0.00 | 93 | 1012.3 |
| 20260903092755 | 78 | 111 | 2.0 | 2.0 | 0.00 | 0.00 | 0.00 | 93 | 1012.2 |
| 20260903092245 | 78 | 148 | 3.0 | 5.0 | 0.00 | 0.00 | 0.00 | 93 | 1012.1 |
| 20260903091744 | 78 | 108 | 3.0 | 3.0 | 0.00 | 0.00 | 0.00 | 93 | 1012.2 |
| 20260903091238 | 78 | 127 | 2.0 | 3.0 | 0.00 | 0.00 | 0.00 | 93 | 1012.3 |
| 20260903090734 | 78 | 123 | 2.0 | 2.0 | 0.00 | 0.00 | 0.00 | 93 | 1012.3 |
| 20260903090232 | 78 | 116 | 1.0 | 1.0 | 0.00 | 0.00 | 0.00 | 94 | 1012.3 |
| 20260903085726 | 78 | 177 | 3.0 | 3.0 | 0.00 | 0.00 | 0.00 | 94 | 1012.3 |
| 20260903085221 | 78 | 154 | 2.0 | 2.0 | 0.00 | 0.00 | 0.00 | 94 | 1012.3 |
| 20260903084719 | 78 | 143 | 4.0 | 5.0 | 0.00 | 0.00 | 0.00 | 94 | 1012.1 |
| 20260903084214 | 78 | 115 | 2.0 | 2.0 | 0.00 | 0.00 | 0.00 | 93 | 1012.3 |
| 20260903083709 | 78 | 208 | 1.0 | 3.0 | 0.00 | 0.00 | 0.00 | 93 | 1012.2 |
| 20260903083203 | 78 | 125 | 4.0 | 5.0 | 0.00 | 0.00 | 0.00 | 93 | 1012.3 |
| 20260903082657 | 78 | 114 | 2.0 | 2.0 | 0.00 | 0.00 | 0.00 | 93 | 1012.4 |
| 20260903082154 | 78 | 106 | 2.0 | 2.0 | 0.00 | 0.00 | 0.00 | 93 | 1012.2 |
| 20260903081648 | 78 | 151 | 3.0 | 3.0 | 0.00 | 0.00 | 0.00 | 93 | 1012.4 |
| 20260903081144 | 78 | 105 | 2.0 | 3.0 | 0.00 | 0.00 | 0.00 | 92 | 1012.4 |
| 20260903080640 | 78 | 112 | 2.0 | 2.0 | 0.00 | 0.00 | 0.00 | 92 | 1012.4 |
| 20260903080138 | 78 | 76 | 1.0 | 2.0 | 0.00 | 0.00 | 0.00 | 92 | 1012.5 |
| 20260903075636 | 78 | 157 | 2.0 | 2.0 | 0.00 | 0.00 | 0.00 | 92 | 1012.6 |
| 20260903075136 | 78 | 105 | 2.0 | 2.0 | 0.00 | 0.00 | 0.00 | 92 | 1012.4 |
| 20260903074636 | 78 | 144 | 1.0 | 2.0 | 0.00 | 0.00 | 0.00 | 91 | 1012.6 |
| 20260903074131 | 78 | 89 | 1.0 | 2.0 | 0.00 | 0.00 | 0.00 | 91 | 1012.6 |
| 20260903073626 | 78 | 72 | 1.0 | 1.0 | 0.00 | 0.00 | 0.00 | 91 | 1012.5 |
| 20260903073122 | 78 | 80 | 1.0 | 1.0 | 0.00 | 0.00 | 0.00 | 90 | 1012.5 |
| 20260903072617 | 78 | 105 | 1.0 | 2.0 | 0.00 | 0.00 | 0.00 | 90 | 1012.5 |
| 20260903072114 | 78 | 103 | 1.0 | 1.0 | 0.00 | 0.00 | 0.00 | 90 | 1012.6 |
| 20260903071610 | 79 | 108 | 1.0 | 2.0 | 0.00 | 0.00 | 0.00 | 89 | 1012.9 |
| 20260903071111 | 79 | 104 | 1.0 | 1.0 | 0.00 | 0.00 | 0.00 | 89 | 1012.3 |
| 20260903070611 | 79 | 82 | 2.0 | 2.0 | 0.00 | 0.00 | 0.00 | 89 | 1012.6 |
| 20260903070107 | 79 | 107 | 2.0 | 2.0 | 0.00 | 0.00 | 0.00 | 89 | 1012.5 |
| 20260903065606 | 79 | 93 | 1.0 | 2.0 | 0.00 | 0.00 | 0.00 | 88 | 1012.3 |
| 20260903065100 | 79 | 159 | 2.0 | 2.0 | 0.00 | 0.00 | 0.00 | 88 | 1012.6 |
| 20260903064555 | 79 | 156 | 4.0 | 5.0 | 0.00 | 0.00 | 0.00 | 88 | 1012.8 |
| 20260903064050 | 79 | 150 | 3.0 | 5.0 | 0.00 | 0.00 | 0.00 | 87 | 1012.6 |
| 20260903063545 | 80 | 140 | 3.0 | 3.0 | 0.00 | 0.00 | 0.00 | 87 | 1012.8 |
| 20260903063041 | 80 | 114 | 2.0 | 3.0 | 0.00 | 0.00 | 0.00 | 87 | 1012.9 |
| 20260903062536 | 80 | 126 | 3.0 | 3.0 | 0.00 | 0.00 | 0.00 | 87 | 1012.6 |
| 20260903062032 | 80 | 112 | 3.0 | 3.0 | 0.00 | 0.00 | 0.00 | 86 | 1012.6 |
| 20260903061527 | 80 | 156 | 3.0 | 3.0 | 0.00 | 0.00 | 0.00 | 86 | 1012.8 |
| 20260903061027 | 80 | 146 | 5.0 | 9.0 | 0.00 | 0.00 | 0.00 | 86 | 1012.5 |
| 20260903060526 | 80 | 150 | 2.0 | 3.0 | 0.00 | 0.00 | 0.00 | 85 | 1012.8 |
| 20260903060021 | 80 | 135 | 5.0 | 6.0 | 0.00 | 0.00 | 0.00 | 84 | 1012.8 |
| 20260903055519 | 81 | 211 | 4.0 | 5.0 | 0.00 | 0.00 | 0.00 | 84 | 1012.8 |
| 20260903055018 | 81 | 145 | 3.0 | 3.0 | 0.00 | 0.00 | 0.00 | 83 | 1012.8 |
| 20260903054513 | 81 | 137 | 3.0 | 3.0 | 0.00 | 0.00 | 0.00 | 83 | 1012.9 |
| 20260903054009 | 81 | 120 | 3.0 | 5.0 | 0.00 | 0.00 | 0.00 | 82 | 1012.6 |
| 20260903053509 | 81 | 128 | 4.0 | 5.0 | 0.00 | 0.00 | 0.00 | 82 | 1013.0 |
| 20260903053005 | 82 | 180 | 3.0 | 3.0 | 0.00 | 0.00 | 0.00 | 80 | 1012.9 |
| 20260903052501 | 82 | 137 | 3.0 | 3.0 | 0.00 | 0.00 | 0.00 | 78 | 1012.9 |
| 20260903051956 | 82 | 74 | 3.0 | 5.0 | 0.00 | 0.00 | 0.00 | 78 | 1012.8 |
| 20260903051451 | 82 | 154 | 3.0 | 5.0 | 0.00 | 0.00 | 0.00 | 77 | 1012.6 |
| 20260903050947 | 82 | 106 | 2.0 | 2.0 | 0.00 | 0.00 | 0.00 | 77 | 1012.6 |
| 20260903050445 | 82 | 123 | 3.0 | 5.0 | 0.00 | 0.00 | 0.00 | 77 | 1012.4 |
| 20260903045940 | 83 | 150 | 5.0 | 8.0 | 0.00 | 0.00 | 0.00 | 76 | 1012.6 |
| 20260903045436 | 83 | 153 | 4.0 | 5.0 | 0.00 | 0.00 | 0.00 | 75 | 1012.3 |
| 20260903044932 | 83 | 184 | 4.0 | 6.0 | 0.00 | 0.00 | 0.00 | 74 | 1012.6 |
| 20260903044433 | 83 | 171 | 4.0 | 5.0 | 0.00 | 0.00 | 0.00 | 74 | 1012.4 |